createdAt,value
2019-01-18T00:00:35.154Z,2.68
2019-01-18T00:03:04.699Z,2.56
2019-01-18T00:05:34.114Z,2.60
2019-01-18T00:08:03.533Z,2.57
2019-01-18T00:10:32.926Z,2.57
2019-01-18T00:13:02.717Z,2.65
2019-01-18T00:15:32.229Z,2.57
2019-01-18T00:18:01.696Z,2.64
2019-01-18T00:20:37.199Z,2.64
2019-01-18T00:23:06.696Z,2.50
2019-01-18T00:25:36.198Z,2.54
2019-01-18T00:28:05.761Z,2.51
2019-01-18T00:30:35.161Z,2.54
2019-01-18T00:33:04.897Z,2.53
2019-01-18T00:35:34.396Z,2.52
2019-01-18T00:38:03.914Z,2.59
2019-01-18T00:40:33.608Z,2.52
2019-01-18T00:43:03.101Z,2.50
2019-01-18T00:45:32.533Z,2.48
2019-01-18T00:48:02.012Z,2.43
2019-01-18T00:50:31.525Z,2.42
2019-01-18T00:53:01.389Z,2.40
2019-01-18T00:55:30.833Z,2.47
2019-01-18T00:58:00.296Z,2.52
2019-01-18T01:00:30.232Z,2.50
2019-01-18T01:02:59.621Z,2.55
2019-01-18T01:05:29.241Z,2.61
2019-01-18T01:07:58.656Z,2.64
2019-01-18T01:10:28.110Z,2.61
2019-01-18T01:12:58.229Z,2.64
2019-01-18T01:15:28.158Z,2.63
2019-01-18T01:17:57.948Z,2.63
2019-01-18T01:20:27.630Z,2.66
2019-01-18T01:22:58.193Z,2.67
2019-01-18T01:25:27.806Z,2.72
2019-01-18T01:27:57.223Z,2.73
2019-01-18T01:30:27.189Z,2.74
2019-01-18T01:32:56.912Z,2.64
2019-01-18T01:35:26.473Z,2.62
2019-01-18T01:37:55.931Z,2.72
2019-01-18T01:40:27.484Z,2.73
2019-01-18T01:42:58.237Z,2.78
2019-01-18T01:45:27.779Z,2.80
2019-01-18T01:47:57.202Z,2.76
2019-01-18T01:50:27.671Z,2.78
2019-01-18T01:52:57.961Z,2.71
2019-01-18T01:55:27.381Z,2.74
2019-01-18T01:57:57.135Z,2.68
2019-01-18T02:00:28.763Z,2.74
2019-01-18T02:02:58.226Z,2.72
2019-01-18T02:05:27.729Z,2.73
2019-01-18T02:07:57.279Z,2.68
2019-01-18T02:10:26.742Z,2.69
2019-01-18T02:12:56.192Z,2.69
2019-01-18T02:15:27.381Z,2.80
2019-01-18T02:17:56.856Z,2.78
2019-01-18T02:20:26.236Z,2.86
2019-01-18T02:22:55.777Z,2.87
2019-01-18T02:25:25.251Z,2.82
2019-01-18T02:27:54.644Z,2.80
2019-01-18T02:30:28.492Z,2.85
2019-01-18T02:32:57.914Z,2.88
2019-01-18T02:35:27.661Z,2.98
2019-01-18T02:37:57.216Z,2.93
2019-01-18T02:40:26.678Z,2.88
2019-01-18T02:42:56.141Z,2.94
2019-01-18T02:45:25.945Z,2.92
2019-01-18T02:47:55.388Z,2.90
2019-01-18T02:50:24.920Z,2.85
2019-01-18T02:53:21.089Z,2.89
2019-01-18T02:55:50.677Z,2.91
2019-01-18T02:58:20.159Z,2.84
2019-01-18T03:00:49.583Z,2.88
2019-01-18T03:03:19.105Z,2.84
2019-01-18T03:05:48.501Z,2.79
2019-01-18T03:08:18.030Z,2.71
2019-01-18T03:10:47.490Z,2.74
2019-01-18T03:13:16.891Z,2.68
2019-01-18T03:15:46.417Z,2.53
2019-01-18T03:18:16.199Z,2.43
2019-01-18T03:20:45.584Z,2.33
2019-01-18T03:23:15.387Z,2.31
2019-01-18T03:25:44.776Z,1.83
2019-01-18T03:28:14.262Z,1.32
2019-01-18T03:30:43.658Z,1.30
2019-01-18T03:33:13.149Z,1.13
2019-01-18T03:35:42.518Z,0.83
2019-01-18T03:38:12.045Z,0.83
2019-01-18T03:40:41.530Z,0.80
2019-01-18T03:43:11.011Z,0.74
2019-01-18T03:45:40.455Z,0.68
2019-01-18T03:48:10.268Z,0.65
2019-01-18T03:50:39.717Z,0.62
2019-01-18T03:53:09.539Z,0.51
2019-01-18T03:55:39.391Z,0.55
2019-01-18T03:58:08.815Z,0.51
2019-01-18T04:00:38.271Z,0.51
2019-01-18T04:03:07.796Z,0.60
2019-01-18T04:05:37.291Z,0.61
2019-01-18T04:08:07.080Z,0.53
2019-01-18T04:13:12.895Z,0.66
2019-01-18T04:15:42.708Z,0.74
2019-01-18T04:18:12.223Z,0.72
2019-01-18T04:20:41.590Z,0.66
2019-01-18T04:23:11.057Z,0.62
2019-01-18T04:25:40.565Z,0.71
2019-01-18T04:28:10.044Z,0.67
2019-01-18T04:30:39.509Z,0.60
2019-01-18T04:33:08.981Z,0.65
2019-01-18T04:35:38.495Z,0.69
2019-01-18T04:38:07.987Z,0.69
2019-01-18T04:40:37.484Z,0.74
2019-01-18T04:43:06.964Z,0.80
2019-01-18T04:45:36.936Z,0.77
2019-01-18T04:48:06.586Z,0.74
2019-01-18T04:50:36.129Z,0.81
2019-01-18T04:53:05.635Z,0.81
2019-01-18T04:55:35.296Z,0.79
2019-01-18T04:58:04.778Z,0.84
2019-01-18T05:00:40.451Z,0.79
2019-01-18T05:03:05.667Z,0.82
2019-01-18T05:05:35.173Z,0.80
2019-01-18T05:08:04.756Z,0.93
2019-01-18T05:10:34.256Z,0.79
2019-01-18T05:13:03.705Z,0.75
2019-01-18T05:15:33.905Z,0.67
2019-01-18T05:18:03.346Z,0.62
2019-01-18T05:20:32.801Z,0.55
2019-01-18T05:23:02.604Z,0.53
2019-01-18T05:25:32.017Z,0.52
2019-01-18T05:28:01.481Z,0.42
2019-01-18T05:30:31.267Z,0.44
2019-01-18T05:33:00.775Z,0.33
2019-01-18T05:35:30.575Z,0.11
2019-01-18T05:38:00.099Z,0.10
2019-01-18T05:40:29.539Z,0.21
2019-01-18T05:42:59.051Z,0.20
2019-01-18T05:45:28.539Z,0.28
2019-01-18T05:47:57.878Z,0.38
2019-01-18T05:50:28.973Z,0.37
2019-01-18T05:53:00.170Z,0.45
2019-01-18T05:55:29.631Z,0.52
2019-01-18T05:57:59.143Z,0.57
2019-01-18T06:00:59.205Z,0.49
2019-01-18T06:03:28.666Z,0.45
2019-01-18T06:05:58.067Z,0.41
2019-01-18T06:08:27.571Z,0.41
2019-01-18T06:10:57.047Z,0.45
2019-01-18T06:13:26.848Z,0.41
2019-01-18T06:15:56.386Z,0.43
2019-01-18T06:18:27.706Z,0.44
2019-01-18T06:20:57.174Z,0.41
2019-01-18T06:23:26.663Z,0.38
2019-01-18T06:25:57.440Z,0.34
2019-01-18T06:28:26.917Z,0.32
2019-01-18T06:31:01.700Z,0.15
2019-01-18T06:33:27.864Z,0.06
2019-01-18T06:35:57.284Z,-0.03
2019-01-18T06:38:26.776Z,-0.14
2019-01-18T06:41:07.371Z,-0.21
2019-01-18T06:43:55.038Z,-0.27
2019-01-18T06:46:24.490Z,-0.35
2019-01-18T06:48:55.594Z,-0.41
2019-01-18T06:51:25.320Z,-0.48
2019-01-18T06:53:54.682Z,-0.43
2019-01-18T06:56:24.253Z,-0.45
2019-01-18T06:58:53.665Z,-0.43
2019-01-18T07:01:23.126Z,-0.44
2019-01-18T07:03:52.601Z,-0.40
2019-01-18T07:06:22.135Z,-0.39
2019-01-18T07:08:51.646Z,-0.41
2019-01-18T07:11:21.129Z,-0.44
2019-01-18T07:13:50.635Z,-0.52
2019-01-18T07:16:20.094Z,-0.53
2019-01-18T07:18:49.619Z,-0.59
2019-01-18T07:21:19.009Z,-0.65
2019-01-18T07:23:48.609Z,-0.72
2019-01-18T07:26:18.084Z,-0.69
2019-01-18T07:28:47.706Z,-0.64
2019-01-18T07:31:17.461Z,-0.44
2019-01-18T07:33:46.983Z,-0.38
2019-01-18T07:36:17.226Z,-0.54
2019-01-18T07:38:46.658Z,-0.62
2019-01-18T07:41:16.168Z,-0.64
2019-01-18T07:43:45.546Z,-0.44
2019-01-18T07:46:15.003Z,-0.15
2019-01-18T07:48:44.444Z,0.27
2019-01-18T07:51:15.732Z,0.64
2019-01-18T07:53:45.153Z,1.12
2019-01-18T07:56:14.738Z,1.59
2019-01-18T07:58:44.607Z,1.21
2019-01-18T08:01:26.815Z,1.37
2019-01-18T08:03:57.450Z,1.55
2019-01-18T08:06:27.113Z,2.05
2019-01-18T08:08:59.249Z,1.91
2019-01-18T08:11:28.692Z,1.77
2019-01-18T08:13:58.166Z,1.99
2019-01-18T08:16:27.640Z,2.23
2019-01-18T08:18:57.192Z,2.65
2019-01-18T08:21:26.587Z,2.00
2019-01-18T08:23:56.088Z,2.61
2019-01-18T08:26:25.672Z,2.84
2019-01-18T08:28:55.197Z,1.96
2019-01-18T08:31:28.809Z,2.65
2019-01-18T08:33:55.809Z,2.68
2019-01-18T08:36:25.544Z,2.25
2019-01-18T08:38:55.031Z,2.14
2019-01-18T08:41:24.459Z,2.82
2019-01-18T08:43:53.860Z,2.63
2019-01-18T08:46:23.375Z,3.00
2019-01-18T08:48:53.078Z,3.26
2019-01-18T08:51:22.555Z,2.50
2019-01-18T08:53:51.979Z,2.70
2019-01-18T08:56:21.465Z,3.77
2019-01-18T08:58:51.001Z,3.45
2019-01-18T09:01:20.402Z,3.34
2019-01-18T09:03:49.849Z,2.97
2019-01-18T09:06:19.310Z,3.55
2019-01-18T09:08:48.738Z,4.09
2019-01-18T09:11:18.202Z,3.70
2019-01-18T09:13:47.716Z,3.94
2019-01-18T09:16:17.164Z,3.81
2019-01-18T09:18:46.909Z,3.56
2019-01-18T09:21:16.398Z,3.50
2019-01-18T09:23:45.813Z,2.98
2019-01-18T09:26:15.307Z,2.53
2019-01-18T09:28:44.751Z,2.55
2019-01-18T09:31:14.480Z,2.10
2019-01-18T09:33:43.864Z,1.68
2019-01-18T09:36:13.750Z,1.53
2019-01-18T09:38:43.144Z,1.45
2019-01-18T09:41:12.694Z,1.42
2019-01-18T09:43:42.189Z,1.60
2019-01-18T09:46:12.463Z,1.58
2019-01-18T09:48:42.020Z,1.92
2019-01-18T09:51:11.812Z,2.09
2019-01-18T09:53:41.327Z,1.98
2019-01-18T09:56:10.743Z,2.00
2019-01-18T09:58:40.232Z,2.07
2019-01-18T10:01:10.476Z,1.97
2019-01-18T10:03:43.094Z,2.18
2019-01-18T10:06:12.523Z,2.50
2019-01-18T10:08:42.023Z,1.97
2019-01-18T10:11:11.745Z,2.86
2019-01-18T10:13:41.182Z,3.78
2019-01-18T10:16:11.389Z,4.39
2019-01-18T10:18:40.846Z,3.97
2019-01-18T10:21:10.344Z,4.15
2019-01-18T10:23:39.762Z,4.82
2019-01-18T10:26:09.396Z,4.99
2019-01-18T10:28:38.859Z,4.84
2019-01-18T10:31:09.264Z,4.71
2019-01-18T10:34:22.969Z,5.66
2019-01-18T10:36:52.425Z,5.61
2019-01-18T10:39:21.995Z,5.19
2019-01-18T10:41:51.473Z,5.24
2019-01-18T10:44:21.242Z,5.72
2019-01-18T10:46:50.730Z,5.43
2019-01-18T10:49:20.134Z,5.49
2019-01-18T10:51:49.552Z,5.19
2019-01-18T10:54:19.063Z,5.16
2019-01-18T10:56:48.615Z,4.90
2019-01-18T10:59:18.368Z,4.97
2019-01-18T11:01:47.810Z,5.11
2019-01-18T11:04:17.292Z,5.49
2019-01-18T11:06:47.210Z,5.54
2019-01-18T11:09:16.679Z,4.92
2019-01-18T11:11:46.592Z,4.67
2019-01-18T11:14:16.043Z,4.96
2019-01-18T11:16:47.808Z,5.35
2019-01-18T11:19:18.754Z,5.83
2019-01-18T11:21:48.830Z,5.18
2019-01-18T11:24:19.796Z,5.80
2019-01-18T11:26:50.135Z,6.64
2019-01-18T11:29:19.939Z,6.20
2019-01-18T11:31:51.445Z,6.15
2019-01-18T11:34:21.265Z,6.09
2019-01-18T11:36:51.558Z,6.50
2019-01-18T11:39:23.673Z,6.48
2019-01-18T11:41:53.220Z,6.41
2019-01-18T11:44:23.472Z,7.11
2019-01-18T11:46:53.973Z,7.11
2019-01-18T11:49:24.413Z,6.77
2019-01-18T11:51:59.939Z,6.55
2019-01-18T11:54:29.306Z,6.10
2019-01-18T11:56:58.826Z,5.98
2019-01-18T11:59:28.280Z,6.50
2019-01-18T12:01:58.188Z,6.90
2019-01-18T12:04:27.617Z,5.65
2019-01-18T12:06:57.379Z,5.33
2019-01-18T12:09:27.587Z,5.33
2019-01-18T12:11:57.460Z,5.26
2019-01-18T12:14:27.032Z,5.35
2019-01-18T12:16:56.494Z,5.62
2019-01-18T12:19:25.929Z,5.71
2019-01-18T12:21:55.651Z,5.42
2019-01-18T12:24:25.210Z,5.36
2019-01-18T12:26:54.830Z,5.30
2019-01-18T12:29:24.316Z,5.67
2019-01-18T12:31:53.900Z,6.00
2019-01-18T12:34:23.691Z,6.59
2019-01-18T12:36:58.904Z,6.86
2019-01-18T12:39:24.279Z,6.66
2019-01-18T12:41:53.768Z,6.53
2019-01-18T12:44:23.232Z,6.14
2019-01-18T12:46:52.979Z,5.67
2019-01-18T12:49:22.420Z,5.59
2019-01-18T12:51:51.942Z,6.00
2019-01-18T12:54:21.384Z,5.96
2019-01-18T12:56:50.890Z,6.22
2019-01-18T12:59:20.380Z,5.62
2019-01-18T13:01:49.748Z,6.14
2019-01-18T13:04:19.308Z,6.08
2019-01-18T13:06:48.734Z,5.35
2019-01-18T13:09:18.433Z,5.27
2019-01-18T13:11:47.916Z,5.34
2019-01-18T13:14:17.408Z,5.40
2019-01-18T13:16:48.110Z,5.65
2019-01-18T13:19:25.127Z,5.69
2019-01-18T13:21:54.525Z,6.06
2019-01-18T13:24:24.318Z,5.57
2019-01-18T13:26:53.885Z,5.61
2019-01-18T13:29:23.307Z,5.43
2019-01-18T13:31:52.828Z,5.27
2019-01-18T13:34:22.293Z,4.98
2019-01-18T13:36:51.785Z,4.77
2019-01-18T13:39:21.182Z,4.83
2019-01-18T13:41:50.787Z,4.75
2019-01-18T13:44:20.579Z,4.93
2019-01-18T13:46:50.028Z,4.93
2019-01-18T13:49:19.530Z,5.35
2019-01-18T13:51:48.964Z,5.46
2019-01-18T13:54:18.463Z,5.56
2019-01-18T13:56:47.883Z,5.45
2019-01-18T13:59:17.458Z,5.38
2019-01-18T14:01:46.889Z,5.40
2019-01-18T14:04:16.383Z,5.35
2019-01-18T14:06:45.877Z,5.13
2019-01-18T14:09:15.900Z,5.27
2019-01-18T14:11:55.841Z,4.93
2019-01-18T14:14:29.421Z,5.19
2019-01-18T14:16:59.109Z,5.16
2019-01-18T14:19:28.549Z,4.79
2019-01-18T14:21:58.020Z,4.64
2019-01-18T14:24:57.147Z,4.26
2019-01-18T14:27:26.645Z,4.23
2019-01-18T14:29:56.154Z,4.33
2019-01-18T14:32:25.663Z,4.45
2019-01-18T14:35:00.811Z,4.62
2019-01-18T14:37:36.828Z,4.61
2019-01-18T14:40:07.566Z,4.32
2019-01-18T14:42:37.058Z,4.06
2019-01-18T14:45:09.188Z,3.90
2019-01-18T14:47:38.653Z,4.08
2019-01-18T14:50:12.514Z,4.08
2019-01-18T14:52:42.030Z,4.02
2019-01-18T14:55:11.661Z,3.87
2019-01-18T14:57:41.456Z,3.96
2019-01-18T15:00:17.193Z,3.92
2019-01-18T15:02:46.713Z,3.80
2019-01-18T15:05:16.195Z,3.63
2019-01-18T15:07:45.838Z,3.55
2019-01-18T15:10:17.448Z,3.43
2019-01-18T15:12:48.206Z,3.34
2019-01-18T15:15:17.738Z,3.07
2019-01-18T15:17:47.511Z,2.91
2019-01-18T15:20:19.923Z,2.73
2019-01-18T15:22:49.595Z,2.62
2019-01-18T15:25:19.251Z,2.49
2019-01-18T15:27:48.928Z,2.39
2019-01-18T15:30:20.821Z,2.24
2019-01-18T15:32:50.431Z,2.10
2019-01-18T15:35:21.727Z,1.96
2019-01-18T15:37:51.170Z,1.81
2019-01-18T15:40:22.813Z,1.73
2019-01-18T15:42:52.569Z,1.60
2019-01-18T15:45:22.043Z,1.50
2019-01-18T15:47:51.525Z,1.43
2019-01-18T15:50:23.817Z,1.32
2019-01-18T15:52:54.446Z,1.27
2019-01-18T15:55:24.182Z,1.23
2019-01-18T15:57:53.648Z,1.14
2019-01-18T16:00:34.589Z,1.14
2019-01-18T16:03:15.833Z,1.01
2019-01-18T16:05:42.148Z,0.96
2019-01-18T16:08:12.707Z,0.89
2019-01-18T16:10:42.186Z,0.86
2019-01-18T16:13:12.895Z,0.81
2019-01-18T16:16:12.242Z,0.77
2019-01-18T16:18:41.721Z,0.71
2019-01-18T16:21:11.266Z,0.62
2019-01-18T16:23:40.726Z,0.56
2019-01-18T16:26:10.353Z,0.50
2019-01-18T16:28:39.802Z,0.45
2019-01-18T16:31:10.442Z,0.39
2019-01-18T16:33:39.882Z,0.32
2019-01-18T16:36:10.489Z,0.28
2019-01-18T16:38:40.045Z,0.21
2019-01-18T16:41:09.543Z,0.17
2019-01-18T16:43:42.061Z,0.15
2019-01-18T16:46:12.042Z,0.12
2019-01-18T16:48:41.649Z,0.09
2019-01-18T16:51:11.441Z,0.07
2019-01-18T16:53:40.979Z,0.05
2019-01-18T16:56:10.453Z,0.02
2019-01-18T16:58:40.533Z,-0.03
2019-01-18T17:01:11.279Z,-0.01
2019-01-18T17:03:40.755Z,0.02
2019-01-18T17:06:10.428Z,0.01
2019-01-18T17:08:40.493Z,0.00
2019-01-18T17:11:09.906Z,-0.07
2019-01-18T17:13:40.752Z,-0.14
2019-01-18T17:16:10.950Z,-0.06
2019-01-18T17:18:40.510Z,-0.10
2019-01-18T17:21:10.503Z,-0.20
2019-01-18T17:23:40.065Z,-0.21
2019-01-18T17:26:09.769Z,-0.28
2019-01-18T17:28:39.555Z,-0.28
2019-01-18T17:31:09.879Z,-0.28
2019-01-18T17:33:39.390Z,-0.25
2019-01-18T17:36:25.786Z,-0.26
2019-01-18T17:39:27.701Z,-0.28
2019-01-18T17:42:37.232Z,-0.29
2019-01-18T17:45:37.973Z,-0.38
2019-01-18T17:48:38.409Z,-0.42
2019-01-18T17:51:21.781Z,-0.49
2019-01-18T17:54:22.940Z,-0.52
2019-01-18T17:57:27.903Z,-0.61
2019-01-18T18:00:33.434Z,-0.62
2019-01-18T18:03:36.449Z,-0.62
2019-01-18T18:06:46.086Z,-0.64
2019-01-18T18:09:42.662Z,-0.57
2019-01-18T18:12:42.305Z,-0.59
2019-01-18T18:16:01.747Z,-0.67
2019-01-18T18:19:03.462Z,-0.65
2019-01-18T18:22:19.097Z,-0.67
2019-01-18T18:25:10.608Z,-0.67
2019-01-18T18:28:14.996Z,-0.68
2019-01-18T18:31:30.172Z,-0.76
2019-01-18T18:34:48.629Z,-0.79
2019-01-18T18:37:50.182Z,-0.77
2019-01-18T18:40:41.106Z,-0.76
2019-01-18T18:43:45.420Z,-0.78
2019-01-18T18:47:00.487Z,-0.77
2019-01-18T18:49:55.771Z,-0.73
2019-01-18T18:53:23.909Z,-0.77
2019-01-18T18:56:44.981Z,-0.83
2019-01-18T18:59:48.632Z,-0.99
2019-01-18T19:02:53.977Z,-1.10
2019-01-18T19:05:57.054Z,-1.07
2019-01-18T19:09:08.902Z,-1.07
2019-01-18T19:12:23.565Z,-1.08
2019-01-18T19:15:22.496Z,-0.98
2019-01-18T19:18:13.401Z,-1.00
2019-01-18T19:21:18.108Z,-0.99
2019-01-18T19:24:15.444Z,-1.01
2019-01-18T19:27:08.855Z,-0.96
2019-01-18T19:30:27.710Z,-1.13
2019-01-18T19:33:19.620Z,-1.19
2019-01-18T19:36:14.291Z,-1.29
2019-01-18T19:39:15.354Z,-1.31
2019-01-18T19:42:25.118Z,-1.30
2019-01-18T19:45:46.506Z,-1.23
2019-01-18T19:48:42.074Z,-1.09
2019-01-18T19:52:08.125Z,-1.04
2019-01-18T19:55:08.017Z,-0.95
2019-01-18T19:58:14.839Z,-0.84
2019-01-18T20:01:10.228Z,-0.68
2019-01-18T20:04:14.687Z,-0.56
2019-01-18T20:07:36.834Z,-0.51
2019-01-18T20:10:37.563Z,-0.38
2019-01-18T20:14:05.138Z,-0.46
2019-01-18T20:17:18.179Z,-0.40
2019-01-18T20:20:34.831Z,-0.29
2019-01-18T20:23:19.610Z,-0.31
2019-01-18T20:26:30.871Z,-0.23
2019-01-18T20:29:35.935Z,-0.17
2019-01-18T20:32:49.485Z,-0.18
2019-01-18T20:35:59.816Z,-0.21
2019-01-18T20:39:12.774Z,-0.21
2019-01-18T20:42:06.102Z,-0.19
2019-01-18T20:45:30.904Z,-0.10
2019-01-18T20:49:07.410Z,-0.11
2019-01-18T20:52:14.114Z,-0.24
2019-01-18T20:55:13.701Z,-0.35
2019-01-18T20:58:17.406Z,-0.49
2019-01-18T21:01:28.394Z,-0.49
2019-01-18T21:04:16.711Z,-0.55
2019-01-18T21:07:13.684Z,-0.66
2019-01-18T21:10:15.679Z,-0.73
2019-01-18T21:13:31.404Z,-0.78
2019-01-18T21:16:28.545Z,-0.86
2019-01-18T21:19:41.950Z,-0.88
2019-01-18T21:22:47.021Z,-0.86
2019-01-18T21:26:03.023Z,-0.78
2019-01-18T21:29:12.011Z,-0.74
2019-01-18T21:32:06.294Z,-0.73
2019-01-18T21:35:19.372Z,-0.79
2019-01-18T21:38:26.993Z,-0.86
2019-01-18T21:41:46.163Z,-0.96
2019-01-18T21:45:03.324Z,-1.02
2019-01-18T21:48:09.444Z,-1.08
2019-01-18T21:51:32.600Z,-1.13
2019-01-18T21:54:40.657Z,-1.22
2019-01-18T21:57:46.529Z,-1.34
2019-01-18T22:01:12.112Z,-1.39
2019-01-18T22:04:31.086Z,-1.40
2019-01-18T22:07:39.282Z,-1.42
2019-01-18T22:10:35.798Z,-1.36
2019-01-18T22:13:24.682Z,-1.29
2019-01-18T22:16:03.977Z,-1.19
2019-01-18T22:19:26.231Z,-1.09
2019-01-18T22:22:17.362Z,-0.98
2019-01-18T22:25:19.659Z,-0.86
2019-01-18T22:28:22.347Z,-0.76
2019-01-18T22:31:15.543Z,-0.73
2019-01-18T22:33:56.092Z,-0.66
2019-01-18T22:37:15.329Z,-0.59
2019-01-18T22:40:21.023Z,-0.59
2019-01-18T22:43:22.609Z,-0.62
2019-01-18T22:46:17.837Z,-0.60
2019-01-18T22:49:14.287Z,-0.62
2019-01-18T22:52:24.810Z,-0.59
2019-01-18T22:55:28.332Z,-0.63
2019-01-18T22:58:24.130Z,-0.63
2019-01-18T23:01:48.557Z,-0.62
2019-01-18T23:04:47.224Z,-0.59
2019-01-18T23:07:53.743Z,-0.55
2019-01-18T23:11:08.674Z,-0.51
2019-01-18T23:14:01.389Z,-0.50
2019-01-18T23:17:04.877Z,-0.49
2019-01-18T23:20:27.879Z,-0.33
2019-01-18T23:23:14.759Z,-0.37
2019-01-18T23:26:02.996Z,-0.37
2019-01-18T23:29:13.357Z,-0.37
2019-01-18T23:32:14.630Z,-0.39
2019-01-18T23:35:30.252Z,-0.33
2019-01-18T23:38:13.326Z,-0.28
2019-01-18T23:41:36.172Z,-0.31
2019-01-18T23:44:43.954Z,-0.28
2019-01-18T23:47:53.208Z,-0.27
2019-01-18T23:50:36.440Z,-0.20
2019-01-18T23:53:44.771Z,-0.31
2019-01-18T23:56:31.510Z,-0.27
2019-01-18T23:59:34.050Z,-0.36
